Time;durP1;ratioP1;P1;durP2;ratioP2;P2;SDS_P1;SDS_P2;PMS_P1;PMS_P2;Temp;Humidity;BMP_temperature;BMP_pressure;BME280_temperature;BME280_humidity;BME280_pressure;Samples;Min_cycle;Max_cycle;Signal;HPM_P1;HPM_P2
2022/07/25 00:01:18;;;;;;;4.15;3.75;;;24.20;96.50;;;;;;7343398;19;109833;-79
2022/07/25 00:03:46;;;;;;;5.70;4.10;;;24.20;96.50;;;;;;7341750;19;110593;-79
2022/07/25 00:06:14;;;;;;;6.70;3.70;;;24.20;96.50;;;;;;7341179;19;111200;-78
2022/07/25 00:08:43;;;;;;;8.38;3.72;;;24.20;96.60;;;;;;7348635;19;109395;-79
2022/07/25 00:11:10;;;;;;;4.55;3.47;;;24.10;96.70;;;;;;7340565;19;110678;-79
2022/07/25 00:13:38;;;;;;;3.90;3.60;;;24.10;96.50;;;;;;7342761;19;110335;-79
2022/07/25 00:16:05;;;;;;;8.38;3.97;;;24.10;96.50;;;;;;7340553;19;110398;-79
2022/07/25 00:18:32;;;;;;;4.03;3.40;;;24.10;96.30;;;;;;7341729;19;110214;-79
2022/07/25 00:20:59;;;;;;;4.60;3.83;;;24.00;96.30;;;;;;7341545;19;109637;-79
2022/07/25 00:23:26;;;;;;;5.00;3.40;;;24.00;96.20;;;;;;7341751;19;110190;-79
2022/07/25 00:25:53;;;;;;;7.97;3.33;;;24.00;96.20;;;;;;7342291;19;111160;-78
2022/07/25 00:28:20;;;;;;;4.10;3.60;;;24.00;95.90;;;;;;7342953;19;109307;-79
2022/07/25 00:30:48;;;;;;;6.55;4.28;;;24.00;96.20;;;;;;7347221;19;110437;-78
2022/07/25 00:33:15;;;;;;;4.72;3.42;;;24.00;96.20;;;;;;7343053;19;109686;-79
2022/07/25 00:35:42;;;;;;;5.72;3.58;;;23.90;96.20;;;;;;7342501;19;110167;-79
2022/07/25 00:38:10;;;;;;;5.20;3.70;;;23.90;96.00;;;;;;7341968;19;111510;-78
2022/07/25 00:40:37;;;;;;;5.63;3.53;;;23.90;96.10;;;;;;7341212;19;109427;-78
2022/07/25 00:43:04;;;;;;;4.80;4.28;;;23.80;95.90;;;;;;7341177;19;110608;-79
2022/07/25 00:45:31;;;;;;;5.70;3.83;;;23.80;96.00;;;;;;7339715;19;110117;-79
2022/07/25 00:47:58;;;;;;;5.85;3.22;;;23.80;96.10;;;;;;7339838;19;110380;-78
2022/07/25 00:50:26;;;;;;;4.78;3.38;;;23.70;96.10;;;;;;7341987;19;110824;-79
2022/07/25 00:52:53;;;;;;;4.70;3.78;;;23.80;96.20;;;;;;7346479;19;110249;-79
2022/07/25 00:55:22;;;;;;;6.93;3.83;;;23.70;96.30;;;;;;7341031;19;110337;-78
2022/07/25 00:57:49;;;;;;;3.40;3.08;;;23.70;96.40;;;;;;7340343;19;110093;-78
2022/07/25 01:00:16;;;;;;;5.72;3.88;;;23.70;96.40;;;;;;7340358;19;109799;-79
2022/07/25 01:02:44;;;;;;;8.40;3.53;;;23.60;96.30;;;;;;7341733;19;109685;-78
2022/07/25 01:05:12;;;;;;;3.97;3.20;;;23.60;96.20;;;;;;7338157;19;111057;-78
2022/07/25 01:07:39;;;;;;;6.63;4.03;;;23.60;96.00;;;;;;7340913;19;109829;-78
2022/07/25 01:10:07;;;;;;;4.18;3.40;;;23.50;96.20;;;;;;7340424;19;110441;-79
2022/07/25 01:12:47;;;;;;;7.03;3.63;;;23.50;96.40;;;;;;7339963;19;110344;-79
2022/07/25 01:15:16;;;;;;;4.28;3.38;;;23.50;96.40;;;;;;7346213;19;109077;-78
2022/07/25 01:17:44;;;;;;;6.88;3.53;;;23.50;96.50;;;;;;7340708;19;110538;-79
2022/07/25 01:20:30;;;;;;;5.28;3.72;;;23.50;96.60;;;;;;7341498;19;109240;-79
2022/07/25 01:22:59;;;;;;;3.90;3.50;;;23.40;96.50;;;;;;7338006;19;109597;-79
2022/07/25 01:25:26;;;;;;;5.30;3.72;;;23.40;96.50;;;;;;7338843;19;109994;-79
2022/07/25 01:27:54;;;;;;;4.72;3.70;;;23.40;96.50;;;;;;7338918;19;109552;-78
2022/07/25 01:30:23;;;;;;;7.68;3.80;;;23.30;96.50;;;;;;7338398;19;110513;-79
2022/07/25 01:32:50;;;;;;;5.20;3.70;;;23.30;96.40;;;;;;7338334;19;109279;-79
2022/07/25 01:35:18;;;;;;;4.97;3.97;;;23.30;96.40;;;;;;7346166;19;109768;-79
2022/07/25 01:37:45;;;;;;;4.57;3.90;;;23.30;96.40;;;;;;7337486;19;110842;-79
2022/07/25 01:40:12;;;;;;;5.30;3.65;;;23.30;96.60;;;;;;7335746;19;111123;-79
2022/07/25 01:42:40;;;;;;;5.65;3.80;;;23.20;96.60;;;;;;7341036;19;109609;-79
2022/07/25 01:45:09;;;;;;;4.10;3.70;;;23.20;96.70;;;;;;7339257;19;111219;-80
2022/07/25 01:47:36;;;;;;;4.68;3.88;;;23.20;96.50;;;;;;7340575;19;109449;-79
2022/07/25 01:50:04;;;;;;;6.00;3.75;;;23.20;96.60;;;;;;7339593;19;110281;-79
2022/07/25 01:52:31;;;;;;;4.88;3.60;;;23.20;96.60;;;;;;7339441;19;111287;-79
2022/07/25 01:54:58;;;;;;;4.30;3.78;;;23.10;96.60;;;;;;7337839;19;114731;-78
2022/07/25 01:57:26;;;;;;;6.88;3.45;;;23.10;96.60;;;;;;7345421;19;110686;-78
2022/07/25 01:59:57;;;;;;;5.32;3.97;;;23.10;96.70;;;;;;7338439;19;109444;-79
2022/07/25 02:02:25;;;;;;;5.07;3.50;;;23.10;96.60;;;;;;7340472;19;109958;-79
2022/07/25 02:04:52;;;;;;;5.03;3.85;;;23.10;96.60;;;;;;7338980;19;111145;-79
2022/07/25 02:07:19;;;;;;;5.63;3.92;;;23.10;96.60;;;;;;7339706;19;109421;-78
2022/07/25 02:09:46;;;;;;;5.22;4.07;;;23.00;96.60;;;;;;7339478;19;110243;-78
2022/07/25 02:12:19;;;;;;;6.18;4.43;;;23.00;96.90;;;;;;7338765;19;111544;-78
2022/07/25 02:14:46;;;;;;;7.78;4.05;;;23.00;97.20;;;;;;7337464;19;109630;-78
2022/07/25 02:17:13;;;;;;;6.43;4.18;;;23.00;97.30;;;;;;7337834;19;109467;-78
2022/07/25 02:19:40;;;;;;;11.57;4.50;;;23.00;97.30;;;;;;7343169;19;111400;-78
2022/07/25 02:22:07;;;;;;;7.82;4.57;;;22.90;97.50;;;;;;7336470;19;110251;-78
2022/07/25 02:24:36;;;;;;;13.65;4.50;;;22.90;97.70;;;;;;7338139;19;111766;-78
2022/07/25 02:27:04;;;;;;;6.30;4.28;;;22.90;97.80;;;;;;7335691;19;109602;-79
2022/07/25 02:29:31;;;;;;;5.82;4.38;;;22.70;97.90;;;;;;7336903;19;110509;-79
2022/07/25 02:31:58;;;;;;;8.23;4.25;;;22.70;98.10;;;;;;7336514;19;111168;-80
2022/07/25 02:34:26;;;;;;;5.85;4.00;;;22.70;98.20;;;;;;7337371;19;109655;-78
2022/07/25 02:36:53;;;;;;;5.50;4.30;;;22.70;98.40;;;;;;7339027;19;110448;-79
2022/07/25 02:39:20;;;;;;;7.68;4.15;;;22.70;98.40;;;;;;7337770;19;111956;-79
2022/07/25 02:41:47;;;;;;;4.95;4.45;;;22.70;98.30;;;;;;7341373;19;110955;-80
2022/07/25 02:44:14;;;;;;;8.00;4.70;;;22.60;98.60;;;;;;7336967;19;110522;-80
2022/07/25 02:46:41;;;;;;;4.70;4.30;;;22.60;99.00;;;;;;7337708;19;110022;-79
2022/07/25 02:49:08;;;;;;;7.93;4.10;;;22.50;99.10;;;;;;7337285;19;109577;-80
2022/07/25 02:51:36;;;;;;;7.13;5.20;;;22.40;99.20;;;;;;7338620;19;110308;-78
2022/07/25 02:54:03;;;;;;;7.43;4.80;;;22.40;99.60;;;;;;7339014;19;109746;-78
2022/07/25 02:56:31;;;;;;;6.40;4.93;;;22.20;99.90;;;;;;7339044;19;110836;-78
2022/07/25 02:58:59;;;;;;;7.15;4.82;;;22.20;99.90;;;;;;7338199;19;111277;-79
2022/07/25 03:01:26;;;;;;;7.53;4.82;;;22.20;99.90;;;;;;7335007;19;109662;-75
2022/07/25 03:03:53;;;;;;;9.75;5.40;;;22.10;99.90;;;;;;7333836;19;110459;-75
2022/07/25 03:06:20;;;;;;;8.02;4.97;;;22.00;99.90;;;;;;7333285;19;109889;-76
2022/07/25 03:08:47;;;;;;;6.50;5.78;;;22.00;99.90;;;;;;7334182;19;110185;-76
2022/07/25 03:11:15;;;;;;;7.03;5.80;;;21.90;99.90;;;;;;7336163;19;110251;-76
2022/07/25 03:13:42;;;;;;;9.85;5.30;;;21.90;99.90;;;;;;7333689;19;109380;-75
2022/07/25 03:16:09;;;;;;;7.28;5.68;;;21.80;99.90;;;;;;7336975;19;110138;-75
2022/07/25 03:18:37;;;;;;;5.80;5.30;;;21.80;99.90;;;;;;7335353;19;109883;-75
2022/07/25 03:21:04;;;;;;;11.38;5.03;;;21.80;99.90;;;;;;7338511;19;109920;-76
2022/07/25 03:23:32;;;;;;;6.68;4.85;;;21.80;99.90;;;;;;7341515;19;112292;-75
2022/07/25 03:25:59;;;;;;;6.18;5.53;;;21.80;99.90;;;;;;7335302;19;109722;-77
2022/07/25 03:28:26;;;;;;;6.90;5.30;;;21.80;99.90;;;;;;7335998;19;110023;-76
2022/07/25 03:30:53;;;;;;;9.93;5.25;;;21.70;99.90;;;;;;7336614;19;110133;-75
2022/07/25 03:33:21;;;;;;;6.82;5.13;;;21.70;99.90;;;;;;7334248;19;109434;-77
2022/07/25 03:35:48;;;;;;;13.48;5.20;;;21.70;99.90;;;;;;7335538;19;110257;-74
2022/07/25 03:38:15;;;;;;;7.75;5.50;;;21.70;99.90;;;;;;7336700;19;110205;-75
2022/07/25 03:40:42;;;;;;;8.52;5.32;;;21.60;99.90;;;;;;7336404;19;111817;-75
2022/07/25 03:43:09;;;;;;;12.40;5.70;;;21.60;99.90;;;;;;7336586;19;109481;-76
2022/07/25 03:45:36;;;;;;;10.95;5.18;;;21.60;99.90;;;;;;7340955;19;110169;-74
2022/07/25 03:48:04;;;;;;;19.08;5.72;;;21.50;99.90;;;;;;7336521;19;110001;-75
2022/07/25 03:50:31;;;;;;;5.90;4.93;;;21.50;99.90;;;;;;7334988;19;110136;-75
2022/07/25 03:52:58;;;;;;;9.02;4.85;;;21.50;99.90;;;;;;7333244;19;110267;-77
2022/07/25 03:55:25;;;;;;;7.20;4.88;;;21.60;99.90;;;;;;7340175;19;110774;-75
2022/07/25 03:57:52;;;;;;;8.45;5.03;;;21.70;99.90;;;;;;7343277;19;110135;-76
2022/07/25 04:00:19;;;;;;;8.73;5.00;;;21.70;99.90;;;;;;7342646;19;109434;-75
2022/07/25 04:02:46;;;;;;;8.65;5.20;;;21.60;99.90;;;;;;7341674;19;109705;-76
2022/07/25 04:05:13;;;;;;;8.93;5.55;;;21.60;99.90;;;;;;7338662;19;110144;-75
2022/07/25 04:07:40;;;;;;;6.82;5.68;;;21.70;99.90;;;;;;7348057;19;110349;-75
2022/07/25 04:10:08;;;;;;;8.73;5.40;;;21.70;99.90;;;;;;7343105;19;111352;-76
2022/07/25 04:12:36;;;;;;;6.93;5.25;;;21.70;99.90;;;;;;7341003;19;110758;-75
2022/07/25 04:15:03;;;;;;;5.90;5.30;;;21.70;99.90;;;;;;7341638;19;110454;-75
2022/07/25 04:17:31;;;;;;;9.65;5.57;;;21.70;99.90;;;;;;7343194;19;109958;-75
2022/07/25 04:19:58;;;;;;;10.10;5.63;;;21.70;99.90;;;;;;7342996;19;110092;-75
2022/07/25 04:22:25;;;;;;;15.35;5.63;;;21.70;99.90;;;;;;7342536;19;110472;-76
2022/07/25 04:24:52;;;;;;;9.68;5.57;;;21.70;99.90;;;;;;7342319;19;110541;-75
2022/07/25 04:27:20;;;;;;;13.85;5.95;;;21.70;99.90;;;;;;7342004;19;109581;-76
2022/07/25 04:29:47;;;;;;;13.32;6.45;;;21.70;99.90;;;;;;7349155;19;110422;-76
2022/07/25 04:32:15;;;;;;;9.18;6.20;;;21.80;99.90;;;;;;7342724;19;109389;-75
2022/07/25 04:34:50;;;;;;;10.48;5.80;;;21.80;99.90;;;;;;7342915;19;109706;-75
2022/07/25 04:37:17;;;;;;;16.48;6.20;;;21.80;99.90;;;;;;7341403;19;110221;-75
2022/07/25 04:39:44;;;;;;;12.25;6.05;;;21.80;99.90;;;;;;7343091;19;109763;-75
2022/07/25 04:42:11;;;;;;;11.70;6.07;;;21.90;99.90;;;;;;7338038;19;110834;-75
2022/07/25 04:44:38;;;;;;;8.73;6.00;;;21.90;99.90;;;;;;7340041;19;110146;-76
2022/07/25 04:47:05;;;;;;;10.73;7.38;;;22.00;99.90;;;;;;7342058;19;109908;-75
2022/07/25 04:49:32;;;;;;;11.55;6.32;;;21.90;99.90;;;;;;7342885;19;109527;-77
2022/07/25 04:51:59;;;;;;;15.95;6.20;;;21.90;99.90;;;;;;7345457;19;111138;-75
2022/07/25 04:54:26;;;;;;;10.60;6.03;;;21.90;99.90;;;;;;7344496;19;110483;-75
2022/07/25 04:56:54;;;;;;;7.30;6.20;;;22.00;99.90;;;;;;7341598;19;110254;-75
2022/07/25 04:59:21;;;;;;;13.30;6.38;;;22.00;99.90;;;;;;7342058;19;109845;-74
2022/07/25 05:01:48;;;;;;;12.93;6.45;;;22.10;99.90;;;;;;7344369;19;109640;-75
2022/07/25 05:04:15;;;;;;;12.05;6.13;;;22.10;99.90;;;;;;7343812;19;111653;-74
2022/07/25 05:06:42;;;;;;;9.13;6.40;;;22.10;99.90;;;;;;7340779;19;109564;-74
2022/07/25 05:09:09;;;;;;;10.55;5.95;;;22.20;99.90;;;;;;7344954;19;110427;-75
2022/07/25 05:11:36;;;;;;;10.93;6.32;;;22.30;99.90;;;;;;7344931;19;111227;-76
2022/07/25 05:14:07;;;;;;;10.55;6.00;;;22.30;99.90;;;;;;7351285;19;109179;-75
2022/07/25 05:16:34;;;;;;;7.03;5.85;;;22.40;99.90;;;;;;7342455;19;111156;-76
2022/07/25 05:19:01;;;;;;;9.93;5.50;;;22.40;99.90;;;;;;7341337;19;110126;-76
2022/07/25 05:21:29;;;;;;;8.95;5.72;;;22.50;99.90;;;;;;7341482;19;110437;-77
2022/07/25 05:23:56;;;;;;;6.03;5.45;;;22.50;99.90;;;;;;7341602;19;111240;-76
2022/07/25 05:26:23;;;;;;;10.13;5.90;;;22.50;99.90;;;;;;7337885;19;109961;-76
2022/07/25 05:28:50;;;;;;;7.05;4.40;;;22.50;99.90;;;;;;7342511;19;110976;-76
2022/07/25 05:31:17;;;;;;;6.30;3.30;;;22.60;99.90;;;;;;7340593;19;111243;-76
2022/07/25 05:33:44;;;;;;;8.27;3.10;;;22.60;99.90;;;;;;7347412;19;109205;-76
2022/07/25 05:36:11;;;;;;;4.82;2.67;;;22.60;99.90;;;;;;7340647;19;110424;-75
2022/07/25 05:38:38;;;;;;;7.32;2.75;;;22.60;99.90;;;;;;7338334;19;109783;-76
2022/07/25 05:41:05;;;;;;;5.25;2.03;;;22.70;99.90;;;;;;7339773;19;111476;-76
2022/07/25 05:43:32;;;;;;;7.97;2.70;;;22.70;99.90;;;;;;7338831;19;110214;-76
2022/07/25 05:46:03;;;;;;;5.82;2.25;;;22.70;99.90;;;;;;7338354;19;109873;-76
2022/07/25 05:48:31;;;;;;;7.75;2.20;;;22.70;99.90;;;;;;7338063;19;109702;-76
2022/07/25 05:50:58;;;;;;;5.18;2.00;;;22.70;99.90;;;;;;7340859;19;111364;-76
2022/07/25 05:53:25;;;;;;;6.40;2.33;;;22.70;99.90;;;;;;7338094;19;110609;-76
2022/07/25 05:55:52;;;;;;;5.28;2.50;;;22.70;99.80;;;;;;7345470;19;110563;-76
2022/07/25 05:58:19;;;;;;;4.60;2.03;;;22.80;99.90;;;;;;7335982;19;109875;-76
2022/07/25 06:00:51;;;;;;;6.85;1.80;;;22.80;99.90;;;;;;7339952;19;114150;-76
2022/07/25 06:03:19;;;;;;;4.93;2.10;;;22.80;99.90;;;;;;7338258;19;110114;-75
2022/07/25 06:05:46;;;;;;;5.60;2.05;;;22.80;99.90;;;;;;7339384;19;110359;-76
2022/07/25 06:08:14;;;;;;;5.35;1.95;;;22.90;99.90;;;;;;7339750;19;110085;-76
2022/07/25 06:10:41;;;;;;;8.20;1.77;;;23.00;99.90;;;;;;7337839;19;111363;-76
2022/07/25 06:13:08;;;;;;;5.10;2.00;;;23.00;99.90;;;;;;7339540;19;109544;-76
2022/07/25 06:15:36;;;;;;;5.03;1.98;;;23.10;99.90;;;;;;7339229;19;110801;-76
2022/07/25 06:18:03;;;;;;;3.67;1.60;;;23.10;99.90;;;;;;7341404;19;110200;-76
2022/07/25 06:20:30;;;;;;;5.25;1.90;;;23.10;99.90;;;;;;7339292;19;110095;-76
2022/07/25 06:22:57;;;;;;;3.65;1.75;;;23.20;99.90;;;;;;7340419;19;111187;-76
2022/07/25 06:25:24;;;;;;;6.43;2.10;;;23.20;99.90;;;;;;7339135;19;109479;-75
2022/07/25 06:27:51;;;;;;;8.77;2.10;;;23.20;99.90;;;;;;7337077;19;110260;-76
2022/07/25 06:30:18;;;;;;;6.80;1.80;;;23.20;99.90;;;;;;7339191;19;111167;-75
2022/07/25 06:32:49;;;;;;;7.25;2.03;;;23.30;99.90;;;;;;7339619;19;109620;-76
2022/07/25 06:35:17;;;;;;;12.68;2.00;;;23.30;99.90;;;;;;7336434;19;110762;-76
2022/07/25 06:37:44;;;;;;;7.05;2.20;;;23.30;99.90;;;;;;7339487;19;111198;-75
2022/07/25 06:40:12;;;;;;;9.85;2.67;;;23.40;99.90;;;;;;7342456;19;109710;-76
2022/07/25 06:42:41;;;;;;;7.18;1.67;;;23.40;99.90;;;;;;7338745;19;110126;-75
2022/07/25 06:45:09;;;;;;;7.28;1.40;;;23.40;99.90;;;;;;7338562;19;109357;-76
2022/07/25 06:47:38;;;;;;;3.85;1.33;;;23.40;99.90;;;;;;7337474;19;110466;-75
2022/07/25 06:50:07;;;;;;;9.05;2.08;;;23.50;99.90;;;;;;7339229;19;110830;-76
2022/07/25 06:52:37;;;;;;;7.25;1.55;;;23.60;99.90;;;;;;7338519;19;109509;-76
2022/07/25 06:55:06;;;;;;;4.90;1.65;;;23.60;99.90;;;;;;7339125;19;109984;-76
2022/07/25 06:57:34;;;;;;;7.88;2.13;;;23.60;99.90;;;;;;7338086;19;111441;-76
2022/07/25 07:00:05;;;;;;;5.55;1.35;;;23.70;99.90;;;;;;7337671;19;109983;-76
2022/07/25 07:02:32;;;;;;;9.02;1.52;;;23.60;99.90;;;;;;7342550;19;110547;-75
2022/07/25 07:04:59;;;;;;;6.20;1.70;;;23.70;99.90;;;;;;7336203;19;109433;-76
2022/07/25 07:07:26;;;;;;;8.07;2.00;;;23.70;99.90;;;;;;7335911;19;110431;-77
2022/07/25 07:09:53;;;;;;;8.75;1.63;;;23.80;99.90;;;;;;7335708;19;110225;-75
2022/07/25 07:12:21;;;;;;;6.55;1.40;;;23.80;99.90;;;;;;7337031;19;110438;-76
2022/07/25 07:14:48;;;;;;;6.07;1.67;;;23.90;99.90;;;;;;7337926;19;111881;-76
2022/07/25 07:17:15;;;;;;;7.88;1.63;;;24.10;99.90;;;;;;7337286;19;112444;-76
2022/07/25 07:19:44;;;;;;;5.47;1.90;;;24.20;99.90;;;;;;7337602;19;109350;-76
2022/07/25 07:22:11;;;;;;;4.70;1.48;;;24.30;99.90;;;;;;7338005;19;110414;-75
2022/07/25 07:24:39;;;;;;;6.93;1.92;;;24.40;99.90;;;;;;7342828;19;110509;-76
2022/07/25 07:27:14;;;;;;;7.15;2.15;;;24.50;99.90;;;;;;7335291;19;109696;-77
2022/07/25 07:29:44;;;;;;;6.93;2.08;;;24.60;99.90;;;;;;7340801;19;111182;-78
2022/07/25 07:32:12;;;;;;;5.78;1.95;;;24.60;99.90;;;;;;7343456;19;112032;-77
2022/07/25 07:34:39;;;;;;;5.63;1.98;;;24.70;99.90;;;;;;7345100;19;110461;-75
2022/07/25 07:37:06;;;;;;;5.05;1.60;;;24.80;99.90;;;;;;7342291;19;111265;-76
2022/07/25 07:39:33;;;;;;;5.78;1.75;;;24.90;99.90;;;;;;7344143;19;109795;-76
2022/07/25 07:42:00;;;;;;;6.57;2.08;;;24.90;99.90;;;;;;7341529;19;110832;-77
2022/07/25 07:44:27;;;;;;;7.18;2.00;;;25.00;99.90;;;;;;7349303;19;111557;-76
2022/07/25 07:46:54;;;;;;;4.03;1.40;;;25.00;99.90;;;;;;7343219;19;109603;-77
2022/07/25 07:49:21;;;;;;;5.65;1.60;;;25.10;99.90;;;;;;7343772;19;110330;-77
2022/07/25 07:51:48;;;;;;;9.75;1.70;;;25.20;99.90;;;;;;7343065;19;109374;-77
2022/07/25 07:57:00;;;;;;;4.32;1.55;;;25.40;99.90;;;;;;7343437;19;112828;-77
2022/07/25 07:59:27;;;;;;;4.63;1.30;;;25.50;99.90;;;;;;7343693;19;109314;-76
2022/07/25 08:01:54;;;;;;;5.25;1.27;;;25.40;99.90;;;;;;7345096;19;111114;-76
2022/07/25 08:04:22;;;;;;;3.35;1.10;;;25.40;99.90;;;;;;7344140;19;111035;-77
2022/07/25 08:06:49;;;;;;;3.42;1.50;;;25.40;99.90;;;;;;7348463;19;109320;-76
2022/07/25 08:09:16;;;;;;;5.65;1.63;;;25.40;99.90;;;;;;7342930;19;110111;-77
2022/07/25 08:11:43;;;;;;;7.20;1.77;;;25.50;99.90;;;;;;7341699;19;109636;-76
2022/07/25 08:14:10;;;;;;;5.80;1.50;;;25.50;99.80;;;;;;7344084;19;110386;-77
2022/07/25 08:16:37;;;;;;;3.97;1.52;;;25.60;99.90;;;;;;7342789;19;111396;-76
2022/07/25 08:19:04;;;;;;;7.03;1.52;;;25.70;99.90;;;;;;7342737;19;109929;-77
2022/07/25 08:21:31;;;;;;;4.22;1.52;;;25.80;99.50;;;;;;7343343;19;111100;-77
2022/07/25 08:23:58;;;;;;;5.60;1.90;;;25.80;99.10;;;;;;7342364;19;112912;-76
2022/07/25 08:26:26;;;;;;;3.53;1.55;;;25.90;99.00;;;;;;7342544;19;109339;-76
2022/07/25 08:28:54;;;;;;;2.55;1.23;;;25.90;99.00;;;;;;7347610;19;110305;-77
2022/07/25 08:31:41;;;;;;;5.50;1.58;;;25.90;99.10;;;;;;7339262;19;109733;-77
2022/07/25 08:34:08;;;;;;;6.15;1.73;;;25.90;98.90;;;;;;7343441;19;109539;-77
2022/07/25 08:36:36;;;;;;;7.60;1.58;;;25.90;98.60;;;;;;7343435;19;111496;-77
2022/07/25 08:39:03;;;;;;;7.70;1.75;;;25.90;98.70;;;;;;7343404;19;109364;-77
2022/07/25 08:41:32;;;;;;;6.13;2.20;;;25.80;97.90;;;;;;7339298;19;109945;-77
2022/07/25 08:44:01;;;;;;;4.68;1.52;;;25.80;98.40;;;;;;7341394;19;111194;-77
2022/07/25 08:46:29;;;;;;;6.75;1.80;;;25.80;98.90;;;;;;7340271;19;109450;-76
2022/07/25 08:48:56;;;;;;;5.63;1.88;;;25.90;98.80;;;;;;7343214;19;109709;-77
2022/07/25 08:51:23;;;;;;;4.80;1.75;;;26.00;98.40;;;;;;7348298;19;110172;-77
2022/07/25 08:53:50;;;;;;;10.73;2.00;;;26.10;99.30;;;;;;7343107;19;109318;-77
2022/07/25 08:56:17;;;;;;;5.55;1.80;;;26.20;98.50;;;;;;7342600;19;109958;-77
2022/07/25 08:58:48;;;;;;;6.20;1.70;;;26.20;98.30;;;;;;7342597;19;111205;-77
2022/07/25 09:01:15;;;;;;;5.60;1.83;;;26.30;98.40;;;;;;7342067;19;109820;-78
2022/07/25 09:03:43;;;;;;;7.15;1.90;;;26.40;98.30;;;;;;7343008;19;112270;-77
2022/07/25 09:06:21;;;;;;;5.90;1.80;;;26.50;98.00;;;;;;7342480;19;109310;-77
2022/07/25 09:08:55;;;;;;;8.10;1.67;;;26.50;97.80;;;;;;7342157;19;109495;-77
2022/07/25 09:11:34;;;;;;;8.55;2.08;;;26.60;98.10;;;;;;7342320;19;109726;-77
2022/07/25 09:14:05;;;;;;;6.00;2.08;;;26.60;98.20;;;;;;7346823;19;109880;-77
2022/07/25 09:16:37;;;;;;;4.28;1.60;;;26.70;98.00;;;;;;7339933;19;111353;-77
2022/07/25 09:19:21;;;;;;;6.95;1.70;;;26.70;97.90;;;;;;7341343;19;110303;-76
2022/07/25 09:22:06;;;;;;;9.18;1.80;;;26.80;97.40;;;;;;7342469;19;110511;-77
2022/07/25 09:24:44;;;;;;;7.30;1.60;;;26.90;97.40;;;;;;7337429;19;110890;-77
2022/07/25 09:27:12;;;;;;;5.57;1.35;;;26.90;97.30;;;;;;7339464;19;109256;-78
2022/07/25 09:29:41;;;;;;;5.28;1.58;;;27.00;97.10;;;;;;7341434;19;110332;-77
2022/07/25 09:32:19;;;;;;;2.67;1.35;;;27.00;96.90;;;;;;7341161;19;114019;-77
2022/07/25 09:34:48;;;;;;;10.00;1.50;;;27.10;96.70;;;;;;7341489;19;109307;-77
2022/07/25 09:37:17;;;;;;;8.77;1.13;;;27.10;96.20;;;;;;7346200;19;109472;-77
2022/07/25 09:39:50;;;;;;;4.85;1.20;;;27.20;96.30;;;;;;7340837;19;109880;-77
2022/07/25 09:42:35;;;;;;;5.13;1.15;;;27.20;96.10;;;;;;7339423;19;109973;-77
2022/07/25 09:45:10;;;;;;;5.53;1.25;;;27.40;96.10;;;;;;7338577;19;110075;-75
2022/07/25 09:47:58;;;;;;;3.63;0.93;;;27.60;94.70;;;;;;7337312;19;109893;-75
2022/07/25 09:50:27;;;;;;;5.18;1.02;;;27.60;94.50;;;;;;7337969;19;110494;-77
2022/07/25 09:52:58;;;;;;;3.22;1.10;;;27.60;94.00;;;;;;7340725;19;111106;-76
2022/07/25 09:55:25;;;;;;;2.45;1.10;;;27.70;94.20;;;;;;7341347;19;109773;-76
2022/07/25 09:57:52;;;;;;;4.75;1.08;;;27.70;93.90;;;;;;7344391;19;110087;-76
2022/07/25 10:00:22;;;;;;;3.67;1.20;;;27.70;94.40;;;;;;7340450;19;110099;-77
2022/07/25 10:03:04;;;;;;;4.55;1.35;;;27.70;93.90;;;;;;7341049;19;113087;-76
2022/07/25 10:06:01;;;;;;;4.10;1.35;;;27.80;94.30;;;;;;7340876;19;111201;-76
2022/07/25 10:08:29;;;;;;;3.13;1.17;;;27.90;94.40;;;;;;7338281;19;109506;-77
2022/07/25 10:10:56;;;;;;;3.03;1.20;;;27.80;94.10;;;;;;7340323;19;109479;-76
2022/07/25 10:13:29;;;;;;;2.10;1.00;;;27.80;94.10;;;;;;7340489;19;111767;-77
2022/07/25 10:15:57;;;;;;;5.47;1.33;;;28.00;94.20;;;;;;7338411;19;110828;-77
2022/07/25 10:18:26;;;;;;;5.72;1.50;;;28.10;94.50;;;;;;7339490;19;109616;-77
2022/07/25 10:21:07;;;;;;;3.03;1.38;;;28.20;94.10;;;;;;7345876;19;111424;-77
2022/07/25 10:24:03;;;;;;;4.72;1.20;;;28.10;93.60;;;;;;7339792;19;110545;-78
2022/07/25 10:26:33;;;;;;;3.22;1.10;;;28.20;94.10;;;;;;7338989;19;110947;-77
2022/07/25 10:29:06;;;;;;;2.65;1.20;;;28.40;93.80;;;;;;7336460;19;110833;-77
2022/07/25 10:31:36;;;;;;;6.20;1.30;;;28.50;93.40;;;;;;7338769;19;109668;-77
2022/07/25 10:34:05;;;;;;;5.20;1.38;;;28.40;92.90;;;;;;7339795;19;111299;-77
2022/07/25 10:36:52;;;;;;;3.42;1.30;;;28.40;93.10;;;;;;7339995;19;109668;-79
2022/07/25 10:39:22;;;;;;;4.80;1.27;;;28.40;93.10;;;;;;7340466;19;109705;-77
2022/07/25 10:41:54;;;;;;;3.22;1.20;;;28.40;93.30;;;;;;7338413;19;111921;-78
2022/07/25 10:44:22;;;;;;;3.00;1.42;;;28.50;93.40;;;;;;7343260;19;110225;-77
2022/07/25 10:46:49;;;;;;;5.70;1.30;;;28.60;93.30;;;;;;7337849;19;111165;-77
2022/07/25 10:49:26;;;;;;;4.05;1.40;;;28.60;93.00;;;;;;7339004;19;110036;-78
2022/07/25 10:52:00;;;;;;;8.82;1.50;;;28.60;92.80;;;;;;7338840;19;110423;-77
2022/07/25 10:54:36;;;;;;;5.82;1.50;;;28.50;92.50;;;;;;7336032;19;110092;-77
2022/07/25 10:57:05;;;;;;;5.07;1.20;;;28.50;92.90;;;;;;7338599;19;110353;-76
2022/07/25 10:59:39;;;;;;;4.82;1.00;;;28.40;92.50;;;;;;7338115;19;112188;-77
2022/07/25 11:02:14;;;;;;;6.50;1.00;;;28.40;92.50;;;;;;7337642;19;110797;-76
2022/07/25 11:04:57;;;;;;;3.30;1.30;;;28.40;92.40;;;;;;7348932;19;109664;-77
2022/07/25 11:07:24;;;;;;;8.63;1.50;;;28.30;92.20;;;;;;7356701;19;110485;-77
2022/07/25 11:09:59;;;;;;;3.63;1.30;;;28.20;92.50;;;;;;7352414;19;109543;-78
2022/07/25 11:12:26;;;;;;;6.35;1.50;;;28.30;92.50;;;;;;7351224;19;110477;-77
2022/07/25 11:15:02;;;;;;;6.45;1.58;;;28.20;92.70;;;;;;7352396;19;115858;-77
2022/07/25 11:17:29;;;;;;;4.50;1.52;;;28.30;92.40;;;;;;7351432;19;109619;-78
2022/07/25 11:20:02;;;;;;;5.22;1.30;;;28.20;91.90;;;;;;7348534;19;111259;-78
2022/07/25 11:22:30;;;;;;;6.90;1.85;;;28.20;92.20;;;;;;7349313;19;110992;-77
2022/07/25 11:24:59;;;;;;;6.50;1.50;;;28.10;92.00;;;;;;7349240;19;110300;-76
2022/07/25 11:27:31;;;;;;;3.25;1.45;;;28.10;92.00;;;;;;7349498;19;109594;-77
2022/07/25 11:30:27;;;;;;;7.95;1.60;;;28.00;92.10;;;;;;7357674;19;111204;-77
2022/07/25 11:32:57;;;;;;;3.40;1.45;;;28.00;91.60;;;;;;7350556;19;110403;-76
2022/07/25 11:35:33;;;;;;;4.35;1.40;;;27.90;92.00;;;;;;7349133;19;110185;-77
2022/07/25 11:38:02;;;;;;;3.78;1.50;;;27.70;92.00;;;;;;7350559;19;111143;-77
2022/07/25 11:40:31;;;;;;;6.72;2.03;;;27.60;92.10;;;;;;7352230;19;110854;-77
2022/07/25 11:42:59;;;;;;;5.90;1.75;;;27.60;92.10;;;;;;7350125;19;111263;-77
2022/07/25 11:45:28;;;;;;;7.05;1.60;;;27.50;92.10;;;;;;7347939;19;109413;-76
2022/07/25 11:48:06;;;;;;;2.97;1.45;;;27.40;92.10;;;;;;7349173;19;110434;-77
2022/07/25 11:50:39;;;;;;;9.10;1.85;;;27.30;92.50;;;;;;7351574;19;110862;-77
2022/07/25 11:53:08;;;;;;;3.35;1.25;;;27.20;92.30;;;;;;7355888;19;109404;-77
2022/07/25 11:55:44;;;;;;;6.13;1.40;;;27.00;92.60;;;;;;7351234;19;113958;-76
2022/07/25 11:58:12;;;;;;;7.10;1.60;;;26.90;92.50;;;;;;7351780;19;109480;-77
2022/07/25 12:00:45;;;;;;;9.18;1.40;;;26.80;92.50;;;;;;7352074;19;110402;-77
2022/07/25 12:03:19;;;;;;;5.40;1.38;;;26.70;92.50;;;;;;7351068;19;110750;-77
2022/07/25 12:05:48;;;;;;;4.43;1.45;;;26.60;92.60;;;;;;7351923;19;109366;-76
2022/07/25 12:08:18;;;;;;;6.32;1.38;;;26.60;92.70;;;;;;7349729;19;110707;-77
2022/07/25 12:10:46;;;;;;;6.60;1.83;;;26.50;93.30;;;;;;7351319;19;114797;-77
2022/07/25 12:13:27;;;;;;;7.45;1.75;;;26.50;93.10;;;;;;7356710;19;111430;-78
2022/07/25 12:15:56;;;;;;;6.97;1.58;;;26.30;93.20;;;;;;7344545;19;110425;-77
2022/07/25 12:18:23;;;;;;;5.85;1.40;;;26.20;93.30;;;;;;7344347;19;109243;-77
2022/07/25 12:20:52;;;;;;;4.97;1.58;;;26.20;93.20;;;;;;7344008;19;110287;-76
2022/07/25 12:23:20;;;;;;;5.93;2.03;;;26.10;93.30;;;;;;7341018;19;110117;-76
2022/07/25 12:25:48;;;;;;;5.70;1.63;;;26.00;93.40;;;;;;7341784;19;109413;-76
2022/07/25 12:28:15;;;;;;;8.38;1.42;;;26.00;93.70;;;;;;7338717;19;109641;-82
2022/07/25 12:30:44;;;;;;;6.80;1.48;;;26.00;94.00;;;;;;7338898;19;113589;-83
2022/07/25 12:33:11;;;;;;;8.30;1.80;;;26.10;94.00;;;;;;7338745;19;110872;-83
2022/07/25 12:35:43;;;;;;;4.53;1.67;;;26.20;94.00;;;;;;7347792;19;110489;-81
2022/07/25 12:38:10;;;;;;;5.03;1.60;;;26.40;94.20;;;;;;7341182;19;109450;-83
2022/07/25 12:40:37;;;;;;;4.78;1.35;;;26.60;94.40;;;;;;7342804;19;109551;-83
2022/07/25 12:43:04;;;;;;;4.60;1.60;;;26.70;93.80;;;;;;7343479;19;111808;-82
2022/07/25 12:45:31;;;;;;;3.70;1.17;;;26.90;93.40;;;;;;7340128;19;111535;-84
2022/07/25 12:47:59;;;;;;;5.40;1.70;;;27.10;93.80;;;;;;7340543;19;110491;-84